sensor_id;sensor_type;location;lat;lon;timestamp;temperature;humidity
32322;DHT22;61553;48.994;8.940;2024-02-15T00:01:58;9.50;99.90
32322;DHT22;61553;48.994;8.940;2024-02-15T00:04:23;9.40;99.90
32322;DHT22;61553;48.994;8.940;2024-02-15T00:06:49;9.40;99.90
32322;DHT22;61553;48.994;8.940;2024-02-15T00:09:14;9.30;99.90
32322;DHT22;61553;48.994;8.940;2024-02-15T00:11:40;9.30;99.90
32322;DHT22;61553;48.994;8.940;2024-02-15T00:14:06;9.30;99.90
32322;DHT22;61553;48.994;8.940;2024-02-15T00:16:34;9.30;99.90
32322;DHT22;61553;48.994;8.940;2024-02-15T00:18:59;9.30;99.90
32322;DHT22;61553;48.994;8.940;2024-02-15T00:21:25;9.30;99.90
32322;DHT22;61553;48.994;8.940;2024-02-15T00:23:51;9.30;99.90
32322;DHT22;61553;48.994;8.940;2024-02-15T00:26:21;9.40;99.90
32322;DHT22;61553;48.994;8.940;2024-02-15T00:28:47;9.40;99.90
32322;DHT22;61553;48.994;8.940;2024-02-15T00:31:13;9.30;99.90
32322;DHT22;61553;48.994;8.940;2024-02-15T00:33:39;9.20;99.90
32322;DHT22;61553;48.994;8.940;2024-02-15T00:36:04;9.10;99.90
32322;DHT22;61553;48.994;8.940;2024-02-15T00:38:34;8.90;99.90
32322;DHT22;61553;48.994;8.940;2024-02-15T00:41:00;8.80;99.90
32322;DHT22;61553;48.994;8.940;2024-02-15T00:43:28;8.70;99.90
32322;DHT22;61553;48.994;8.940;2024-02-15T00:45:54;8.50;99.90
32322;DHT22;61553;48.994;8.940;2024-02-15T00:48:20;8.30;99.90
32322;DHT22;61553;48.994;8.940;2024-02-15T00:50:46;8.20;99.90
32322;DHT22;61553;48.994;8.940;2024-02-15T00:53:11;8.00;99.90
32322;DHT22;61553;48.994;8.940;2024-02-15T00:55:37;7.80;99.90
32322;DHT22;61553;48.994;8.940;2024-02-15T00:58:03;7.70;99.90
32322;DHT22;61553;48.994;8.940;2024-02-15T01:00:28;7.60;99.90
32322;DHT22;61553;48.994;8.940;2024-02-15T01:02:55;7.40;99.90
32322;DHT22;61553;48.994;8.940;2024-02-15T01:05:21;7.40;99.90
32322;DHT22;61553;48.994;8.940;2024-02-15T01:07:47;7.30;99.90
32322;DHT22;61553;48.994;8.940;2024-02-15T01:10:14;7.20;99.90
32322;DHT22;61553;48.994;8.940;2024-02-15T01:12:40;7.20;99.90
32322;DHT22;61553;48.994;8.940;2024-02-15T01:15:06;7.10;99.90
32322;DHT22;61553;48.994;8.940;2024-02-15T01:17:32;7.00;99.90
32322;DHT22;61553;48.994;8.940;2024-02-15T01:19:58;6.90;99.90
32322;DHT22;61553;48.994;8.940;2024-02-15T01:22:23;6.90;99.90
32322;DHT22;61553;48.994;8.940;2024-02-15T01:24:50;6.80;99.90
32322;DHT22;61553;48.994;8.940;2024-02-15T01:27:16;6.80;99.90
32322;DHT22;61553;48.994;8.940;2024-02-15T01:29:42;6.80;99.90
32322;DHT22;61553;48.994;8.940;2024-02-15T01:32:08;6.70;99.90
32322;DHT22;61553;48.994;8.940;2024-02-15T01:34:33;6.70;99.90
32322;DHT22;61553;48.994;8.940;2024-02-15T01:36:59;6.70;99.90
32322;DHT22;61553;48.994;8.940;2024-02-15T01:39:25;6.70;99.90
32322;DHT22;61553;48.994;8.940;2024-02-15T01:41:51;6.70;99.90
32322;DHT22;61553;48.994;8.940;2024-02-15T01:44:18;6.80;99.90
32322;DHT22;61553;48.994;8.940;2024-02-15T01:46:45;6.80;99.90
32322;DHT22;61553;48.994;8.940;2024-02-15T01:49:13;6.70;99.90
32322;DHT22;61553;48.994;8.940;2024-02-15T01:51:39;6.70;99.90
32322;DHT22;61553;48.994;8.940;2024-02-15T01:54:06;6.70;99.90
32322;DHT22;61553;48.994;8.940;2024-02-15T01:56:32;6.70;99.90
32322;DHT22;61553;48.994;8.940;2024-02-15T01:58:58;6.60;99.90
32322;DHT22;61553;48.994;8.940;2024-02-15T02:01:24;6.60;99.90
32322;DHT22;61553;48.994;8.940;2024-02-15T02:03:49;6.50;99.90
32322;DHT22;61553;48.994;8.940;2024-02-15T02:06:16;6.50;99.90
32322;DHT22;61553;48.994;8.940;2024-02-15T02:08:41;6.50;99.90
32322;DHT22;61553;48.994;8.940;2024-02-15T02:11:07;6.40;99.90
32322;DHT22;61553;48.994;8.940;2024-02-15T02:13:33;6.30;99.90
32322;DHT22;61553;48.994;8.940;2024-02-15T02:15:58;6.30;99.90
32322;DHT22;61553;48.994;8.940;2024-02-15T02:18:25;6.40;99.90
32322;DHT22;61553;48.994;8.940;2024-02-15T02:20:51;6.40;99.90
32322;DHT22;61553;48.994;8.940;2024-02-15T02:23:17;6.40;99.90
32322;DHT22;61553;48.994;8.940;2024-02-15T02:25:48;6.40;99.90
32322;DHT22;61553;48.994;8.940;2024-02-15T02:28:15;6.40;99.90
32322;DHT22;61553;48.994;8.940;2024-02-15T02:30:42;6.50;99.90
32322;DHT22;61553;48.994;8.940;2024-02-15T02:33:14;6.60;99.90
32322;DHT22;61553;48.994;8.940;2024-02-15T02:35:47;6.60;99.90
32322;DHT22;61553;48.994;8.940;2024-02-15T02:38:14;6.70;99.90
32322;DHT22;61553;48.994;8.940;2024-02-15T02:40:40;6.80;99.90
32322;DHT22;61553;48.994;8.940;2024-02-15T02:43:06;6.80;99.90
32322;DHT22;61553;48.994;8.940;2024-02-15T02:45:32;6.90;99.90
32322;DHT22;61553;48.994;8.940;2024-02-15T02:47:58;6.90;99.90
32322;DHT22;61553;48.994;8.940;2024-02-15T02:50:24;7.10;99.90
32322;DHT22;61553;48.994;8.940;2024-02-15T02:52:50;7.00;99.90
32322;DHT22;61553;48.994;8.940;2024-02-15T02:55:16;7.00;99.90
32322;DHT22;61553;48.994;8.940;2024-02-15T02:57:42;7.10;99.90
32322;DHT22;61553;48.994;8.940;2024-02-15T03:00:11;7.10;99.90
32322;DHT22;61553;48.994;8.940;2024-02-15T03:02:43;7.20;99.90
32322;DHT22;61553;48.994;8.940;2024-02-15T03:05:09;7.20;99.90
32322;DHT22;61553;48.994;8.940;2024-02-15T03:07:36;7.30;99.90
32322;DHT22;61553;48.994;8.940;2024-02-15T03:10:03;7.30;99.90
32322;DHT22;61553;48.994;8.940;2024-02-15T03:12:36;7.40;99.90
32322;DHT22;61553;48.994;8.940;2024-02-15T03:15:03;7.40;99.90
32322;DHT22;61553;48.994;8.940;2024-02-15T03:17:28;7.50;99.90
32322;DHT22;61553;48.994;8.940;2024-02-15T03:19:57;7.50;99.90
32322;DHT22;61553;48.994;8.940;2024-02-15T03:22:23;7.50;99.90
32322;DHT22;61553;48.994;8.940;2024-02-15T03:24:50;7.50;99.90
32322;DHT22;61553;48.994;8.940;2024-02-15T03:27:16;7.60;99.90
32322;DHT22;61553;48.994;8.940;2024-02-15T03:29:42;7.60;99.90
32322;DHT22;61553;48.994;8.940;2024-02-15T03:32:08;7.60;99.90
32322;DHT22;61553;48.994;8.940;2024-02-15T03:34:35;7.60;99.90
32322;DHT22;61553;48.994;8.940;2024-02-15T03:37:01;7.60;99.90
32322;DHT22;61553;48.994;8.940;2024-02-15T03:39:29;7.60;99.90
32322;DHT22;61553;48.994;8.940;2024-02-15T03:41:56;7.60;99.90
32322;DHT22;61553;48.994;8.940;2024-02-15T03:44:22;7.60;99.90
32322;DHT22;61553;48.994;8.940;2024-02-15T03:46:51;7.70;99.90
32322;DHT22;61553;48.994;8.940;2024-02-15T03:49:20;7.70;99.90
32322;DHT22;61553;48.994;8.940;2024-02-15T03:51:45;7.70;99.90
32322;DHT22;61553;48.994;8.940;2024-02-15T03:54:11;7.80;99.90
32322;DHT22;61553;48.994;8.940;2024-02-15T03:56:46;7.80;99.90
32322;DHT22;61553;48.994;8.940;2024-02-15T03:59:12;7.90;99.90
32322;DHT22;61553;48.994;8.940;2024-02-15T04:01:38;7.90;99.90
32322;DHT22;61553;48.994;8.940;2024-02-15T04:04:05;7.80;99.90
32322;DHT22;61553;48.994;8.940;2024-02-15T04:06:30;7.90;99.90
32322;DHT22;61553;48.994;8.940;2024-02-15T04:08:59;7.90;99.90
32322;DHT22;61553;48.994;8.940;2024-02-15T04:11:25;7.80;99.90
32322;DHT22;61553;48.994;8.940;2024-02-15T04:13:50;7.80;99.90
32322;DHT22;61553;48.994;8.940;2024-02-15T04:16:16;7.90;99.90
32322;DHT22;61553;48.994;8.940;2024-02-15T04:18:42;8.00;99.90
32322;DHT22;61553;48.994;8.940;2024-02-15T04:21:10;8.00;99.90
32322;DHT22;61553;48.994;8.940;2024-02-15T04:23:36;8.00;99.90
32322;DHT22;61553;48.994;8.940;2024-02-15T04:26:02;8.10;99.90
32322;DHT22;61553;48.994;8.940;2024-02-15T04:28:28;8.10;99.90
32322;DHT22;61553;48.994;8.940;2024-02-15T04:30:54;8.20;99.90
32322;DHT22;61553;48.994;8.940;2024-02-15T04:33:20;8.20;99.90
32322;DHT22;61553;48.994;8.940;2024-02-15T04:35:46;8.20;99.90
32322;DHT22;61553;48.994;8.940;2024-02-15T04:38:14;8.20;99.90
32322;DHT22;61553;48.994;8.940;2024-02-15T04:40:40;8.30;99.90
32322;DHT22;61553;48.994;8.940;2024-02-15T04:43:06;8.30;99.90
32322;DHT22;61553;48.994;8.940;2024-02-15T04:45:34;8.50;99.90
32322;DHT22;61553;48.994;8.940;2024-02-15T04:48:00;8.60;99.90
32322;DHT22;61553;48.994;8.940;2024-02-15T04:50:28;8.70;99.90
32322;DHT22;61553;48.994;8.940;2024-02-15T04:52:55;8.80;99.90
32322;DHT22;61553;48.994;8.940;2024-02-15T04:55:20;8.90;99.90
32322;DHT22;61553;48.994;8.940;2024-02-15T04:57:48;8.80;99.90
32322;DHT22;61553;48.994;8.940;2024-02-15T05:00:15;8.80;99.90
32322;DHT22;61553;48.994;8.940;2024-02-15T05:02:41;8.80;99.90
32322;DHT22;61553;48.994;8.940;2024-02-15T05:05:09;8.70;99.90
32322;DHT22;61553;48.994;8.940;2024-02-15T05:07:35;8.70;99.90
32322;DHT22;61553;48.994;8.940;2024-02-15T05:10:05;8.70;99.90
32322;DHT22;61553;48.994;8.940;2024-02-15T05:12:32;8.70;99.90
32322;DHT22;61553;48.994;8.940;2024-02-15T05:15:01;8.70;99.90
32322;DHT22;61553;48.994;8.940;2024-02-15T05:17:27;8.80;99.90
32322;DHT22;61553;48.994;8.940;2024-02-15T05:19:56;8.90;99.90
32322;DHT22;61553;48.994;8.940;2024-02-15T05:22:25;8.90;99.90
32322;DHT22;61553;48.994;8.940;2024-02-15T05:24:54;8.90;99.90
32322;DHT22;61553;48.994;8.940;2024-02-15T05:27:20;9.00;99.90
32322;DHT22;61553;48.994;8.940;2024-02-15T05:29:46;8.90;99.90
32322;DHT22;61553;48.994;8.940;2024-02-15T05:32:11;9.00;99.90
32322;DHT22;61553;48.994;8.940;2024-02-15T05:34:38;9.00;99.90
32322;DHT22;61553;48.994;8.940;2024-02-15T05:37:05;9.00;99.90
32322;DHT22;61553;48.994;8.940;2024-02-15T05:39:32;9.00;99.90
32322;DHT22;61553;48.994;8.940;2024-02-15T05:41:58;9.10;99.90
32322;DHT22;61553;48.994;8.940;2024-02-15T05:44:26;9.10;99.90
32322;DHT22;61553;48.994;8.940;2024-02-15T05:46:52;9.00;99.90
32322;DHT22;61553;48.994;8.940;2024-02-15T05:49:17;9.00;99.90
32322;DHT22;61553;48.994;8.940;2024-02-15T05:51:43;9.00;99.90
32322;DHT22;61553;48.994;8.940;2024-02-15T05:54:10;9.00;99.90
32322;DHT22;61553;48.994;8.940;2024-02-15T05:56:36;9.00;99.90
32322;DHT22;61553;48.994;8.940;2024-02-15T05:59:02;9.00;99.90
32322;DHT22;61553;48.994;8.940;2024-02-15T06:01:39;9.00;99.90
32322;DHT22;61553;48.994;8.940;2024-02-15T06:04:04;9.00;99.90
32322;DHT22;61553;48.994;8.940;2024-02-15T06:06:34;9.00;99.90
32322;DHT22;61553;48.994;8.940;2024-02-15T06:08:59;9.00;99.90
32322;DHT22;61553;48.994;8.940;2024-02-15T06:11:26;9.00;99.90
32322;DHT22;61553;48.994;8.940;2024-02-15T06:13:52;8.90;99.90
32322;DHT22;61553;48.994;8.940;2024-02-15T06:16:18;8.90;99.90
32322;DHT22;61553;48.994;8.940;2024-02-15T06:18:43;8.90;99.90
32322;DHT22;61553;48.994;8.940;2024-02-15T06:21:09;8.90;99.90
32322;DHT22;61553;48.994;8.940;2024-02-15T06:23:35;8.90;99.90
32322;DHT22;61553;48.994;8.940;2024-02-15T06:26:01;8.90;99.90
32322;DHT22;61553;48.994;8.940;2024-02-15T06:28:28;8.90;99.90
32322;DHT22;61553;48.994;8.940;2024-02-15T06:31:13;8.90;99.90
32322;DHT22;61553;48.994;8.940;2024-02-15T06:33:57;8.90;99.90
32322;DHT22;61553;48.994;8.940;2024-02-15T06:36:49;8.90;99.90
32322;DHT22;61553;48.994;8.940;2024-02-15T06:39:34;9.00;99.90
32322;DHT22;61553;48.994;8.940;2024-02-15T06:42:13;8.90;99.90
32322;DHT22;61553;48.994;8.940;2024-02-15T06:44:47;8.90;99.90
32322;DHT22;61553;48.994;8.940;2024-02-15T06:47:14;8.90;99.90
32322;DHT22;61553;48.994;8.940;2024-02-15T06:49:42;8.90;99.90
32322;DHT22;61553;48.994;8.940;2024-02-15T06:52:10;9.00;99.90
32322;DHT22;61553;48.994;8.940;2024-02-15T06:54:40;8.90;99.90
32322;DHT22;61553;48.994;8.940;2024-02-15T06:57:06;9.00;99.90
32322;DHT22;61553;48.994;8.940;2024-02-15T06:59:33;9.10;99.90
32322;DHT22;61553;48.994;8.940;2024-02-15T07:02:00;9.10;99.90
32322;DHT22;61553;48.994;8.940;2024-02-15T07:04:26;9.20;99.90
32322;DHT22;61553;48.994;8.940;2024-02-15T07:06:52;9.30;99.90
32322;DHT22;61553;48.994;8.940;2024-02-15T07:09:22;9.40;99.90
32322;DHT22;61553;48.994;8.940;2024-02-15T07:11:52;9.40;99.90
32322;DHT22;61553;48.994;8.940;2024-02-15T07:14:18;9.60;99.90
32322;DHT22;61553;48.994;8.940;2024-02-15T07:16:48;9.70;99.90
32322;DHT22;61553;48.994;8.940;2024-02-15T07:19:14;9.90;99.90
32322;DHT22;61553;48.994;8.940;2024-02-15T07:21:41;10.00;99.90
32322;DHT22;61553;48.994;8.940;2024-02-15T07:24:07;10.20;99.90
32322;DHT22;61553;48.994;8.940;2024-02-15T07:26:32;10.30;99.90
32322;DHT22;61553;48.994;8.940;2024-02-15T07:29:00;10.50;99.90
32322;DHT22;61553;48.994;8.940;2024-02-15T07:31:29;10.60;99.90
32322;DHT22;61553;48.994;8.940;2024-02-15T07:33:55;10.80;99.90
32322;DHT22;61553;48.994;8.940;2024-02-15T07:36:21;11.00;99.90
32322;DHT22;61553;48.994;8.940;2024-02-15T07:38:48;11.10;99.90
32322;DHT22;61553;48.994;8.940;2024-02-15T07:41:15;11.10;99.90
32322;DHT22;61553;48.994;8.940;2024-02-15T07:43:40;11.20;99.90
32322;DHT22;61553;48.994;8.940;2024-02-15T07:46:06;11.30;99.90
32322;DHT22;61553;48.994;8.940;2024-02-15T07:48:32;11.30;99.90
32322;DHT22;61553;48.994;8.940;2024-02-15T07:50:58;11.40;99.90
32322;DHT22;61553;48.994;8.940;2024-02-15T07:53:24;11.50;99.90
32322;DHT22;61553;48.994;8.940;2024-02-15T07:55:50;11.50;99.90
32322;DHT22;61553;48.994;8.940;2024-02-15T07:58:16;11.60;99.90
32322;DHT22;61553;48.994;8.940;2024-02-15T08:00:45;11.50;99.90
32322;DHT22;61553;48.994;8.940;2024-02-15T08:03:11;11.60;99.90
32322;DHT22;61553;48.994;8.940;2024-02-15T08:05:37;11.60;99.90
32322;DHT22;61553;48.994;8.940;2024-02-15T08:08:03;11.60;99.90
32322;DHT22;61553;48.994;8.940;2024-02-15T08:10:29;11.80;99.90
32322;DHT22;61553;48.994;8.940;2024-02-15T08:12:55;11.90;99.90
32322;DHT22;61553;48.994;8.940;2024-02-15T08:15:23;12.10;99.90
32322;DHT22;61553;48.994;8.940;2024-02-15T08:17:49;12.30;99.90
32322;DHT22;61553;48.994;8.940;2024-02-15T08:20:16;12.30;99.90
32322;DHT22;61553;48.994;8.940;2024-02-15T08:22:47;12.30;99.90
32322;DHT22;61553;48.994;8.940;2024-02-15T08:25:13;12.30;99.90
32322;DHT22;61553;48.994;8.940;2024-02-15T08:27:42;12.40;99.90
32322;DHT22;61553;48.994;8.940;2024-02-15T08:30:10;12.60;99.90
32322;DHT22;61553;48.994;8.940;2024-02-15T08:32:40;12.70;99.90
32322;DHT22;61553;48.994;8.940;2024-02-15T08:35:11;12.80;99.90
32322;DHT22;61553;48.994;8.940;2024-02-15T08:37:38;12.90;99.90
32322;DHT22;61553;48.994;8.940;2024-02-15T08:40:05;13.00;99.90
32322;DHT22;61553;48.994;8.940;2024-02-15T08:42:42;13.20;99.90
32322;DHT22;61553;48.994;8.940;2024-02-15T08:45:08;13.40;99.90
32322;DHT22;61553;48.994;8.940;2024-02-15T08:47:38;13.50;99.90
32322;DHT22;61553;48.994;8.940;2024-02-15T08:50:05;13.60;99.90
32322;DHT22;61553;48.994;8.940;2024-02-15T08:52:31;13.80;99.90
32322;DHT22;61553;48.994;8.940;2024-02-15T08:54:56;14.20;99.90
32322;DHT22;61553;48.994;8.940;2024-02-15T08:57:24;14.40;99.90
32322;DHT22;61553;48.994;8.940;2024-02-15T08:59:51;14.60;99.90
32322;DHT22;61553;48.994;8.940;2024-02-15T09:02:20;15.00;99.90
32322;DHT22;61553;48.994;8.940;2024-02-15T09:04:45;15.50;99.90
32322;DHT22;61553;48.994;8.940;2024-02-15T09:07:11;15.90;99.90
32322;DHT22;61553;48.994;8.940;2024-02-15T09:09:37;16.60;99.90
32322;DHT22;61553;48.994;8.940;2024-02-15T09:12:03;17.20;99.90
32322;DHT22;61553;48.994;8.940;2024-02-15T09:14:34;17.50;99.70
32322;DHT22;61553;48.994;8.940;2024-02-15T09:17:02;18.50;96.90
32322;DHT22;61553;48.994;8.940;2024-02-15T09:19:35;19.10;94.40
32322;DHT22;61553;48.994;8.940;2024-02-15T09:22:02;20.30;91.50
32322;DHT22;61553;48.994;8.940;2024-02-15T09:24:33;20.70;88.30
32322;DHT22;61553;48.994;8.940;2024-02-15T09:27:02;21.60;84.70
32322;DHT22;61553;48.994;8.940;2024-02-15T09:29:28;22.20;78.80
32322;DHT22;61553;48.994;8.940;2024-02-15T09:32:00;23.00;75.50
32322;DHT22;61553;48.994;8.940;2024-02-15T09:34:27;24.00;71.00
32322;DHT22;61553;48.994;8.940;2024-02-15T09:36:53;24.90;66.50
32322;DHT22;61553;48.994;8.940;2024-02-15T09:39:18;24.60;65.30
32322;DHT22;61553;48.994;8.940;2024-02-15T09:41:44;25.20;63.50
32322;DHT22;61553;48.994;8.940;2024-02-15T09:44:10;25.50;62.30
32322;DHT22;61553;48.994;8.940;2024-02-15T09:46:42;26.00;60.30
32322;DHT22;61553;48.994;8.940;2024-02-15T09:49:11;26.10;60.10
32322;DHT22;61553;48.994;8.940;2024-02-15T09:51:37;26.30;59.30
32322;DHT22;61553;48.994;8.940;2024-02-15T09:54:06;27.00;56.90
32322;DHT22;61553;48.994;8.940;2024-02-15T09:56:35;27.40;55.90
32322;DHT22;61553;48.994;8.940;2024-02-15T09:59:01;28.30;54.30
32322;DHT22;61553;48.994;8.940;2024-02-15T10:01:31;28.30;53.30
32322;DHT22;61553;48.994;8.940;2024-02-15T10:03:58;28.60;52.40
32322;DHT22;61553;48.994;8.940;2024-02-15T10:06:25;28.10;51.50
32322;DHT22;61553;48.994;8.940;2024-02-15T10:08:52;27.80;51.90
32322;DHT22;61553;48.994;8.940;2024-02-15T10:11:18;27.80;51.90
32322;DHT22;61553;48.994;8.940;2024-02-15T10:13:45;27.50;51.70
32322;DHT22;61553;48.994;8.940;2024-02-15T10:16:15;27.70;51.50
32322;DHT22;61553;48.994;8.940;2024-02-15T10:18:42;28.10;51.10
32322;DHT22;61553;48.994;8.940;2024-02-15T10:21:07;28.60;49.20
32322;DHT22;61553;48.994;8.940;2024-02-15T10:23:33;28.60;48.90
32322;DHT22;61553;48.994;8.940;2024-02-15T10:25:59;28.90;48.90
32322;DHT22;61553;48.994;8.940;2024-02-15T10:28:26;29.60;47.70
32322;DHT22;61553;48.994;8.940;2024-02-15T10:30:54;29.80;47.70
32322;DHT22;61553;48.994;8.940;2024-02-15T10:33:26;30.00;47.50
32322;DHT22;61553;48.994;8.940;2024-02-15T10:36:09;29.00;47.90
32322;DHT22;61553;48.994;8.940;2024-02-15T10:38:36;29.40;47.30
32322;DHT22;61553;48.994;8.940;2024-02-15T10:41:06;29.20;47.40
32322;DHT22;61553;48.994;8.940;2024-02-15T10:43:36;28.80;48.40
32322;DHT22;61553;48.994;8.940;2024-02-15T10:46:05;28.50;48.50
32322;DHT22;61553;48.994;8.940;2024-02-15T10:48:33;28.60;48.00
32322;DHT22;61553;48.994;8.940;2024-02-15T10:50:59;28.00;49.20
32322;DHT22;61553;48.994;8.940;2024-02-15T10:53:27;28.20;48.20
32322;DHT22;61553;48.994;8.940;2024-02-15T10:56:17;27.90;48.20
32322;DHT22;61553;48.994;8.940;2024-02-15T10:58:50;27.30;48.90
32322;DHT22;61553;48.994;8.940;2024-02-15T11:01:17;27.20;49.90
32322;DHT22;61553;48.994;8.940;2024-02-15T11:03:59;27.50;48.30
32322;DHT22;61553;48.994;8.940;2024-02-15T11:06:27;27.60;48.40
32322;DHT22;61553;48.994;8.940;2024-02-15T11:08:54;26.80;49.60
32322;DHT22;61553;48.994;8.940;2024-02-15T11:11:21;26.80;50.10
32322;DHT22;61553;48.994;8.940;2024-02-15T11:13:47;26.60;50.10
32322;DHT22;61553;48.994;8.940;2024-02-15T11:16:42;26.90;49.80
32322;DHT22;61553;48.994;8.940;2024-02-15T11:19:09;26.80;49.60
32322;DHT22;61553;48.994;8.940;2024-02-15T11:21:55;26.40;50.20
32322;DHT22;61553;48.994;8.940;2024-02-15T11:24:31;25.30;50.80
32322;DHT22;61553;48.994;8.940;2024-02-15T11:27:01;23.90;52.40
32322;DHT22;61553;48.994;8.940;2024-02-15T11:30:03;22.40;55.80
32322;DHT22;61553;48.994;8.940;2024-02-15T11:32:52;21.20;58.50
32322;DHT22;61553;48.994;8.940;2024-02-15T11:35:26;20.30;61.10
32322;DHT22;61553;48.994;8.940;2024-02-15T11:37:54;19.60;62.70
32322;DHT22;61553;48.994;8.940;2024-02-15T11:40:28;19.20;63.80
32322;DHT22;61553;48.994;8.940;2024-02-15T11:42:55;18.90;64.50
32322;DHT22;61553;48.994;8.940;2024-02-15T11:45:22;18.80;65.10
32322;DHT22;61553;48.994;8.940;2024-02-15T11:47:52;18.70;64.10
32322;DHT22;61553;48.994;8.940;2024-02-15T11:50:19;18.60;65.30
32322;DHT22;61553;48.994;8.940;2024-02-15T11:52:49;18.70;64.70
32322;DHT22;61553;48.994;8.940;2024-02-15T11:55:19;18.60;64.90
32322;DHT22;61553;48.994;8.940;2024-02-15T11:57:58;18.50;65.90
32322;DHT22;61553;48.994;8.940;2024-02-15T12:00:31;18.50;65.50
32322;DHT22;61553;48.994;8.940;2024-02-15T12:03:17;18.30;66.10
32322;DHT22;61553;48.994;8.940;2024-02-15T12:06:02;18.40;66.20
32322;DHT22;61553;48.994;8.940;2024-02-15T12:08:47;18.30;65.80
32322;DHT22;61553;48.994;8.940;2024-02-15T12:11:32;18.20;66.90
32322;DHT22;61553;48.994;8.940;2024-02-15T12:14:16;18.30;66.40
32322;DHT22;61553;48.994;8.940;2024-02-15T12:17:11;18.30;67.10
32322;DHT22;61553;48.994;8.940;2024-02-15T12:19:57;18.20;66.80
32322;DHT22;61553;48.994;8.940;2024-02-15T12:22:34;18.30;67.30
32322;DHT22;61553;48.994;8.940;2024-02-15T12:25:01;18.40;66.70
32322;DHT22;61553;48.994;8.940;2024-02-15T12:27:31;18.30;66.60
32322;DHT22;61553;48.994;8.940;2024-02-15T12:29:58;18.40;66.60
32322;DHT22;61553;48.994;8.940;2024-02-15T12:32:27;18.50;66.70
32322;DHT22;61553;48.994;8.940;2024-02-15T12:35:10;18.40;66.10
32322;DHT22;61553;48.994;8.940;2024-02-15T12:37:41;18.20;66.60
32322;DHT22;61553;48.994;8.940;2024-02-15T12:40:13;18.20;67.10
32322;DHT22;61553;48.994;8.940;2024-02-15T12:42:46;18.30;68.30
32322;DHT22;61553;48.994;8.940;2024-02-15T12:45:18;18.50;67.20
32322;DHT22;61553;48.994;8.940;2024-02-15T12:47:50;18.60;67.30
32322;DHT22;61553;48.994;8.940;2024-02-15T12:50:17;18.50;67.40
32322;DHT22;61553;48.994;8.940;2024-02-15T12:52:45;18.60;67.10
32322;DHT22;61553;48.994;8.940;2024-02-15T12:55:20;18.60;66.60
32322;DHT22;61553;48.994;8.940;2024-02-15T12:57:54;18.50;67.20
32322;DHT22;61553;48.994;8.940;2024-02-15T13:00:25;18.40;67.50
32322;DHT22;61553;48.994;8.940;2024-02-15T13:02:55;18.40;68.00
32322;DHT22;61553;48.994;8.940;2024-02-15T13:05:24;18.20;69.10
32322;DHT22;61553;48.994;8.940;2024-02-15T13:07:51;18.30;68.70
32322;DHT22;61553;48.994;8.940;2024-02-15T13:10:17;18.50;69.20
32322;DHT22;61553;48.994;8.940;2024-02-15T13:12:44;18.50;68.40
32322;DHT22;61553;48.994;8.940;2024-02-15T13:15:11;18.50;68.80
32322;DHT22;61553;48.994;8.940;2024-02-15T13:17:42;18.40;68.00
32322;DHT22;61553;48.994;8.940;2024-02-15T13:20:08;18.40;68.60
32322;DHT22;61553;48.994;8.940;2024-02-15T13:22:38;18.40;68.30
32322;DHT22;61553;48.994;8.940;2024-02-15T13:25:07;18.20;69.50
32322;DHT22;61553;48.994;8.940;2024-02-15T13:27:37;18.10;69.20
32322;DHT22;61553;48.994;8.940;2024-02-15T13:30:04;18.10;69.10
32322;DHT22;61553;48.994;8.940;2024-02-15T13:32:35;18.10;69.40
32322;DHT22;61553;48.994;8.940;2024-02-15T13:35:02;18.20;69.30
32322;DHT22;61553;48.994;8.940;2024-02-15T13:37:33;18.20;68.50
32322;DHT22;61553;48.994;8.940;2024-02-15T13:39:58;18.20;69.00
32322;DHT22;61553;48.994;8.940;2024-02-15T13:42:24;18.20;69.00
32322;DHT22;61553;48.994;8.940;2024-02-15T13:44:50;18.30;69.30
32322;DHT22;61553;48.994;8.940;2024-02-15T13:47:15;18.20;69.70
32322;DHT22;61553;48.994;8.940;2024-02-15T13:49:42;18.30;69.00
32322;DHT22;61553;48.994;8.940;2024-02-15T13:52:08;18.40;69.50
32322;DHT22;61553;48.994;8.940;2024-02-15T13:54:36;18.50;69.50
32322;DHT22;61553;48.994;8.940;2024-02-15T13:57:03;18.50;69.50
32322;DHT22;61553;48.994;8.940;2024-02-15T13:59:29;18.60;68.80
32322;DHT22;61553;48.994;8.940;2024-02-15T14:01:55;18.60;69.20
32322;DHT22;61553;48.994;8.940;2024-02-15T14:04:21;18.60;68.60
32322;DHT22;61553;48.994;8.940;2024-02-15T14:06:47;18.50;69.30
32322;DHT22;61553;48.994;8.940;2024-02-15T14:09:14;18.50;69.70
32322;DHT22;61553;48.994;8.940;2024-02-15T14:11:42;18.40;69.20
32322;DHT22;61553;48.994;8.940;2024-02-15T14:14:08;18.40;69.50
32322;DHT22;61553;48.994;8.940;2024-02-15T14:16:34;18.40;70.20
32322;DHT22;61553;48.994;8.940;2024-02-15T14:18:59;18.30;69.90
32322;DHT22;61553;48.994;8.940;2024-02-15T14:21:29;18.30;70.90
32322;DHT22;61553;48.994;8.940;2024-02-15T14:23:57;18.30;70.50
32322;DHT22;61553;48.994;8.940;2024-02-15T14:26:23;18.20;70.30
32322;DHT22;61553;48.994;8.940;2024-02-15T14:28:52;18.20;70.60
32322;DHT22;61553;48.994;8.940;2024-02-15T14:31:18;18.10;70.50
32322;DHT22;61553;48.994;8.940;2024-02-15T14:34:02;18.00;71.30
32322;DHT22;61553;48.994;8.940;2024-02-15T14:36:28;17.90;71.30
32322;DHT22;61553;48.994;8.940;2024-02-15T14:38:53;17.90;71.80
32322;DHT22;61553;48.994;8.940;2024-02-15T14:41:20;18.00;72.00
32322;DHT22;61553;48.994;8.940;2024-02-15T14:43:46;17.90;71.60
32322;DHT22;61553;48.994;8.940;2024-02-15T14:46:11;18.00;71.80
32322;DHT22;61553;48.994;8.940;2024-02-15T14:48:37;17.90;72.50
32322;DHT22;61553;48.994;8.940;2024-02-15T14:51:05;17.90;72.60
32322;DHT22;61553;48.994;8.940;2024-02-15T14:53:31;17.90;72.70
32322;DHT22;61553;48.994;8.940;2024-02-15T14:55:57;17.90;72.40
32322;DHT22;61553;48.994;8.940;2024-02-15T14:58:23;17.90;72.70
32322;DHT22;61553;48.994;8.940;2024-02-15T15:00:49;17.90;72.40
32322;DHT22;61553;48.994;8.940;2024-02-15T15:03:15;17.80;72.60
32322;DHT22;61553;48.994;8.940;2024-02-15T15:05:42;17.70;72.70
32322;DHT22;61553;48.994;8.940;2024-02-15T15:08:26;17.70;73.00
32322;DHT22;61553;48.994;8.940;2024-02-15T15:11:11;17.60;73.60
32322;DHT22;61553;48.994;8.940;2024-02-15T15:13:54;17.60;73.70
32322;DHT22;61553;48.994;8.940;2024-02-15T15:16:20;17.60;73.70
32322;DHT22;61553;48.994;8.940;2024-02-15T15:18:48;17.50;74.20
32322;DHT22;61553;48.994;8.940;2024-02-15T15:21:15;17.40;74.60
32322;DHT22;61553;48.994;8.940;2024-02-15T15:23:42;17.40;75.10
32322;DHT22;61553;48.994;8.940;2024-02-15T15:26:08;17.30;75.60
32322;DHT22;61553;48.994;8.940;2024-02-15T15:28:40;17.20;76.40
32322;DHT22;61553;48.994;8.940;2024-02-15T15:31:06;17.20;76.70
32322;DHT22;61553;48.994;8.940;2024-02-15T15:33:32;17.10;77.30
32322;DHT22;61553;48.994;8.940;2024-02-15T15:36:02;17.00;78.30
32322;DHT22;61553;48.994;8.940;2024-02-15T15:38:30;17.00;78.40
32322;DHT22;61553;48.994;8.940;2024-02-15T15:40:56;16.90;78.90
32322;DHT22;61553;48.994;8.940;2024-02-15T15:43:23;16.80;79.30
32322;DHT22;61553;48.994;8.940;2024-02-15T15:45:49;16.80;79.20